ESGR

Skövde Airport

Skövde, Sweden
METAR ESGR 181450Z AUTO 04003KT 9999 SG FEW006/// OVC038/// 00/M03 Q0992 REFZUP REUP
Observed Flight Rules
Jan-18 @ 14:50 UTC (38 minutes ago) Visual Flight Rules
Wind Visibility Clouds Conditions
40° at 3 knots 10,000+ meters
  • Few at 600' AGL
  • Overcast at 3,800' AGL
  • Snow grains
  • Unknown precipitation
Temperatures Readings
Current 0°C / 32°F
Dewpoint -3°C / 27°F
Humidity 80%
Altimeter 29.29" Hg
Pressure 992 hPa
Elevation 105
METAR ESGR 181450Z AUTO 04003KT 9999 SG FEW006/// OVC038/// 00/M03 Q0992 REFZUP REUP
Observed Flight Rules
Jan-18 @ 14:50 UTC
(38 minutes ago)
VFR
Wind Visibility
40° at 3 knots 10,000+ meters
Clouds
  • Few at 600' AGL
  • Overcast at 3,800' AGL
Conditions
  • Snow grains
  • Unknown precipitation
Temperature Dewpoint
0°C / 32°F -3°C / 27°F
Humidity Altimeter Pressure
80% 29.29" Hg 992 hPa